createdAt,value
2023-03-03T00:01:36.345Z,100.00
2023-03-03T00:03:49.115Z,100.00
2023-03-03T00:06:04.837Z,100.00
2023-03-03T00:08:21.597Z,100.00
2023-03-03T00:10:34.439Z,100.00
2023-03-03T00:12:50.031Z,100.00
2023-03-03T00:15:02.659Z,100.00
2023-03-03T00:17:24.420Z,100.00
2023-03-03T00:19:40.369Z,100.00
2023-03-03T00:21:58.205Z,100.00
2023-03-03T00:24:21.080Z,100.00
2023-03-03T00:26:38.808Z,100.00
2023-03-03T00:28:57.130Z,100.00
2023-03-03T00:31:31.319Z,100.00
2023-03-03T00:33:50.590Z,100.00
2023-03-03T00:36:15.708Z,100.00
2023-03-03T00:38:28.332Z,100.00
2023-03-03T00:40:41.725Z,100.00
2023-03-03T00:42:57.644Z,100.00
2023-03-03T00:45:35.800Z,100.00
2023-03-03T00:47:48.434Z,100.00
2023-03-03T00:50:06.912Z,100.00
2023-03-03T00:52:20.810Z,100.00
2023-03-03T00:54:33.334Z,100.00
2023-03-03T00:56:46.018Z,100.00
2023-03-03T00:58:58.614Z,100.00
2023-03-03T01:01:11.395Z,100.00
2023-03-03T01:03:25.840Z,100.00
2023-03-03T01:05:38.469Z,100.00
2023-03-03T01:07:51.039Z,100.00
2023-03-03T01:10:03.725Z,100.00
2023-03-03T01:12:16.616Z,100.00
2023-03-03T01:14:29.273Z,100.00
2023-03-03T01:16:41.947Z,100.00
2023-03-03T01:18:54.526Z,100.00
2023-03-03T01:21:08.015Z,100.00
2023-03-03T01:23:20.614Z,100.00
2023-03-03T01:25:33.139Z,100.00
2023-03-03T01:27:45.721Z,100.00
2023-03-03T01:29:58.532Z,100.00
2023-03-03T01:32:11.152Z,100.00
2023-03-03T01:34:24.653Z,100.00
2023-03-03T01:36:37.467Z,100.00
2023-03-03T01:38:50.113Z,100.00
2023-03-03T01:41:03.389Z,100.00
2023-03-03T01:43:16.042Z,100.00
2023-03-03T01:45:30.812Z,100.00
2023-03-03T01:47:58.750Z,100.00
2023-03-03T01:50:14.769Z,100.00
2023-03-03T01:52:39.804Z,100.00
2023-03-03T01:54:57.559Z,100.00
2023-03-03T01:57:20.517Z,100.00
2023-03-03T01:59:37.653Z,100.00
2023-03-03T02:01:50.628Z,100.00
2023-03-03T02:04:03.733Z,100.00
2023-03-03T02:06:20.419Z,100.00
2023-03-03T02:08:51.409Z,100.00
2023-03-03T02:11:05.584Z,100.00
2023-03-03T02:13:18.372Z,100.00
2023-03-03T02:15:35.960Z,100.00
2023-03-03T02:17:52.422Z,100.00
2023-03-03T02:20:19.041Z,100.00
2023-03-03T02:22:41.240Z,100.00
2023-03-03T02:25:00.014Z,100.00
2023-03-03T02:27:14.014Z,100.00
2023-03-03T02:29:26.602Z,100.00
2023-03-03T02:31:39.263Z,100.00
2023-03-03T02:33:53.259Z,100.00
2023-03-03T02:36:06.218Z,100.00
2023-03-03T02:38:30.685Z,100.00
2023-03-03T02:40:52.045Z,100.00
2023-03-03T02:43:06.460Z,100.00
2023-03-03T02:45:19.230Z,100.00
2023-03-03T02:47:31.819Z,100.00
2023-03-03T02:49:45.140Z,100.00
2023-03-03T02:51:58.388Z,100.00
2023-03-03T02:54:12.810Z,100.00
2023-03-03T02:56:25.692Z,100.00
2023-03-03T02:58:38.339Z,100.00
2023-03-03T03:00:50.984Z,100.00
2023-03-03T03:03:03.811Z,100.00
2023-03-03T03:05:16.405Z,100.00
2023-03-03T03:07:28.964Z,100.00
2023-03-03T03:09:41.637Z,100.00
2023-03-03T03:11:54.314Z,100.00
2023-03-03T03:14:08.180Z,100.00
2023-03-03T03:16:20.761Z,100.00
2023-03-03T03:18:33.354Z,100.00
2023-03-03T03:20:48.340Z,100.00
2023-03-03T03:23:01.079Z,100.00
2023-03-03T03:25:13.816Z,100.00
2023-03-03T03:27:27.069Z,100.00
2023-03-03T03:29:39.727Z,100.00
2023-03-03T03:31:52.368Z,100.00
2023-03-03T03:34:05.074Z,100.00
2023-03-03T03:36:17.770Z,100.00
2023-03-03T03:38:31.588Z,100.00
2023-03-03T03:40:44.268Z,100.00
2023-03-03T03:42:56.952Z,100.00
2023-03-03T03:45:09.999Z,100.00
2023-03-03T03:47:22.669Z,100.00
2023-03-03T03:49:35.286Z,100.00
2023-03-03T03:51:47.794Z,100.00
2023-03-03T03:54:00.363Z,100.00
2023-03-03T03:56:13.004Z,100.00
2023-03-03T03:58:25.655Z,100.00
2023-03-03T04:00:40.828Z,100.00
2023-03-03T04:02:53.599Z,100.00
2023-03-03T04:05:07.437Z,100.00
2023-03-03T04:07:20.044Z,100.00
2023-03-03T04:09:32.680Z,100.00
2023-03-03T04:11:45.294Z,100.00
2023-03-03T04:13:57.849Z,100.00
2023-03-03T04:16:10.612Z,100.00
2023-03-03T04:18:23.180Z,100.00
2023-03-03T04:20:35.721Z,100.00
2023-03-03T04:22:48.396Z,100.00
2023-03-03T04:25:05.377Z,100.00
2023-03-03T04:27:18.039Z,100.00
2023-03-03T04:29:30.638Z,100.00
2023-03-03T04:31:43.240Z,100.00
2023-03-03T04:33:55.773Z,100.00
2023-03-03T04:36:08.424Z,100.00
2023-03-03T04:38:21.169Z,100.00
2023-03-03T04:40:33.890Z,100.00
2023-03-03T04:42:46.799Z,100.00
2023-03-03T04:44:59.364Z,100.00
2023-03-03T04:47:12.090Z,100.00
2023-03-03T04:49:24.996Z,100.00
2023-03-03T04:51:37.629Z,100.00
2023-03-03T04:53:50.266Z,100.00
2023-03-03T04:56:02.911Z,100.00
2023-03-03T04:58:16.005Z,100.00
2023-03-03T05:00:28.637Z,100.00
2023-03-03T05:02:41.706Z,100.00
2023-03-03T05:04:54.466Z,100.00
2023-03-03T05:07:07.116Z,100.00
2023-03-03T05:09:19.733Z,100.00
2023-03-03T05:11:32.559Z,100.00
2023-03-03T05:13:46.053Z,100.00
2023-03-03T05:15:58.664Z,100.00
2023-03-03T05:18:12.341Z,100.00
2023-03-03T05:20:25.542Z,100.00
2023-03-03T05:22:38.148Z,100.00
2023-03-03T05:24:50.700Z,100.00
2023-03-03T05:27:03.512Z,100.00
2023-03-03T05:29:16.202Z,100.00
2023-03-03T05:31:28.796Z,100.00
2023-03-03T05:33:41.415Z,100.00
2023-03-03T05:35:57.829Z,100.00
2023-03-03T05:38:11.105Z,100.00
2023-03-03T05:40:24.823Z,100.00
2023-03-03T05:42:37.404Z,100.00
2023-03-03T05:44:50.060Z,100.00
2023-03-03T05:47:02.615Z,100.00
2023-03-03T05:49:15.205Z,100.00
2023-03-03T05:51:27.818Z,100.00
2023-03-03T05:53:40.562Z,100.00
2023-03-03T05:55:53.356Z,100.00
2023-03-03T05:58:05.944Z,100.00
2023-03-03T06:00:19.065Z,100.00
2023-03-03T06:02:31.781Z,100.00
2023-03-03T06:04:44.322Z,100.00
2023-03-03T06:06:56.962Z,100.00
2023-03-03T06:09:09.566Z,100.00
2023-03-03T06:11:22.090Z,100.00
2023-03-03T06:13:34.603Z,100.00
2023-03-03T06:15:47.168Z,100.00
2023-03-03T06:17:59.727Z,100.00
2023-03-03T06:20:12.391Z,100.00
2023-03-03T06:22:24.950Z,100.00
2023-03-03T06:24:37.533Z,100.00
2023-03-03T06:26:50.042Z,100.00
2023-03-03T06:29:02.671Z,100.00
2023-03-03T06:31:15.438Z,100.00
2023-03-03T06:33:28.031Z,100.00
2023-03-03T06:35:40.601Z,100.00
2023-03-03T06:37:53.174Z,100.00
2023-03-03T06:40:07.043Z,100.00
2023-03-03T06:42:20.999Z,100.00
2023-03-03T06:44:33.571Z,100.00
2023-03-03T06:46:46.211Z,100.00
2023-03-03T06:48:58.816Z,100.00
2023-03-03T06:51:23.319Z,100.00
2023-03-03T06:53:36.465Z,100.00
2023-03-03T06:55:49.061Z,100.00
2023-03-03T06:58:02.827Z,100.00
2023-03-03T07:00:17.291Z,100.00
2023-03-03T07:02:29.806Z,100.00
2023-03-03T07:04:42.452Z,100.00
2023-03-03T07:06:57.080Z,100.00
2023-03-03T07:09:21.231Z,100.00
2023-03-03T07:11:33.864Z,100.00
2023-03-03T07:13:51.379Z,100.00
2023-03-03T07:16:11.654Z,100.00
2023-03-03T07:18:32.627Z,100.00
2023-03-03T07:20:45.192Z,100.00
2023-03-03T07:22:58.867Z,100.00
2023-03-03T07:25:29.553Z,100.00
2023-03-03T07:27:42.164Z,100.00
2023-03-03T07:30:25.944Z,100.00
2023-03-03T07:32:46.314Z,100.00
2023-03-03T07:34:58.843Z,100.00
2023-03-03T07:37:18.457Z,100.00
2023-03-03T07:39:37.706Z,100.00
2023-03-03T07:41:52.038Z,100.00
2023-03-03T07:44:21.093Z,100.00
2023-03-03T07:46:42.900Z,100.00
2023-03-03T07:48:57.588Z,100.00
2023-03-03T07:51:23.049Z,100.00
2023-03-03T07:53:37.105Z,100.00
2023-03-03T07:55:49.814Z,100.00
2023-03-03T07:58:12.677Z,100.00
2023-03-03T08:00:28.340Z,100.00
2023-03-03T08:02:52.006Z,100.00
2023-03-03T08:05:28.153Z,100.00
2023-03-03T08:07:40.871Z,100.00
2023-03-03T08:09:59.967Z,100.00
2023-03-03T08:12:42.705Z,100.00
2023-03-03T08:14:58.326Z,100.00
2023-03-03T08:17:23.443Z,100.00
2023-03-03T08:19:36.463Z,100.00
2023-03-03T08:21:49.107Z,100.00
2023-03-03T08:24:01.604Z,100.00
2023-03-03T08:26:14.860Z,100.00
2023-03-03T08:28:27.493Z,100.00
2023-03-03T08:30:40.235Z,100.00
2023-03-03T08:32:52.842Z,100.00
2023-03-03T08:35:05.834Z,100.00
2023-03-03T08:37:18.442Z,100.00
2023-03-03T08:39:31.038Z,100.00
2023-03-03T08:41:44.436Z,100.00
2023-03-03T08:43:57.085Z,100.00
2023-03-03T08:46:11.834Z,100.00
2023-03-03T08:48:24.710Z,100.00
2023-03-03T08:50:38.422Z,100.00
2023-03-03T08:52:51.105Z,100.00
2023-03-03T08:55:04.128Z,100.00
2023-03-03T08:57:16.750Z,100.00
2023-03-03T08:59:29.280Z,100.00
2023-03-03T09:01:44.677Z,100.00
2023-03-03T09:03:57.554Z,100.00
2023-03-03T09:06:11.106Z,100.00
2023-03-03T09:08:23.748Z,100.00
2023-03-03T09:10:36.506Z,100.00
2023-03-03T09:12:49.347Z,100.00
2023-03-03T09:15:35.098Z,100.00
2023-03-03T09:17:48.192Z,100.00
2023-03-03T09:20:21.243Z,100.00
2023-03-03T09:22:36.755Z,100.00
2023-03-03T09:24:53.886Z,100.00
2023-03-03T09:27:18.525Z,100.00
2023-03-03T09:29:37.425Z,100.00
2023-03-03T09:31:55.848Z,100.00
2023-03-03T09:34:31.163Z,100.00
2023-03-03T09:36:43.749Z,100.00
2023-03-03T09:38:58.039Z,100.00
2023-03-03T09:41:28.466Z,100.00
2023-03-03T09:43:55.683Z,100.00
2023-03-03T09:46:39.907Z,100.00
2023-03-03T09:49:14.675Z,100.00
2023-03-03T09:51:45.787Z,100.00
2023-03-03T09:54:20.855Z,100.00
2023-03-03T09:56:39.534Z,100.00
2023-03-03T09:59:10.291Z,100.00
2023-03-03T10:01:40.184Z,100.00
2023-03-03T10:04:00.651Z,100.00
2023-03-03T10:06:25.204Z,100.00
2023-03-03T10:09:09.931Z,100.00
2023-03-03T10:11:35.948Z,100.00
2023-03-03T10:14:19.685Z,99.80
2023-03-03T10:16:51.857Z,99.83
2023-03-03T10:19:38.800Z,99.76
2023-03-03T10:21:59.456Z,99.99
2023-03-03T10:24:29.021Z,100.00
2023-03-03T10:27:13.855Z,99.96
2023-03-03T10:29:40.558Z,99.76
2023-03-03T10:32:19.320Z,99.71
2023-03-03T10:34:41.037Z,99.52
2023-03-03T10:37:09.072Z,99.40
2023-03-03T10:40:01.859Z,99.03
2023-03-03T10:42:48.519Z,99.15
2023-03-03T10:45:35.643Z,99.01
2023-03-03T10:48:12.471Z,99.04
2023-03-03T10:50:34.424Z,98.82
2023-03-03T10:53:08.365Z,98.56
2023-03-03T10:55:32.124Z,98.43
2023-03-03T10:57:53.720Z,98.42
2023-03-03T11:00:24.481Z,97.97
2023-03-03T11:02:58.552Z,97.28
2023-03-03T11:05:42.737Z,97.79
2023-03-03T11:08:02.020Z,97.71
2023-03-03T11:10:14.644Z,97.47
2023-03-03T11:12:47.999Z,97.51
2023-03-03T11:15:34.366Z,97.28
2023-03-03T11:18:07.871Z,96.97
2023-03-03T11:20:43.956Z,96.77
2023-03-03T11:23:15.249Z,97.39
2023-03-03T11:25:38.356Z,96.69
2023-03-03T11:28:12.132Z,96.78
2023-03-03T11:30:35.709Z,96.34
2023-03-03T11:33:05.116Z,95.56
2023-03-03T11:35:29.119Z,94.80
2023-03-03T11:37:57.082Z,94.68
2023-03-03T11:40:20.886Z,94.87
2023-03-03T11:43:10.515Z,94.99
2023-03-03T11:45:31.228Z,94.98
2023-03-03T11:48:01.001Z,94.54
2023-03-03T11:50:22.103Z,94.05
2023-03-03T11:53:13.918Z,93.85
2023-03-03T11:55:33.461Z,94.35
2023-03-03T11:58:07.728Z,94.18
2023-03-03T12:00:41.849Z,94.09
2023-03-03T12:02:58.964Z,93.67
2023-03-03T12:05:33.477Z,93.85
2023-03-03T12:08:16.713Z,93.37
2023-03-03T12:10:54.527Z,93.50
2023-03-03T12:13:21.183Z,93.57
2023-03-03T12:15:45.823Z,93.50
2023-03-03T12:18:06.947Z,93.47
2023-03-03T12:20:54.702Z,92.62
2023-03-03T12:23:33.952Z,92.85
2023-03-03T12:26:22.659Z,92.80
2023-03-03T12:28:42.353Z,92.56
2023-03-03T12:31:07.847Z,92.56
2023-03-03T12:33:36.366Z,93.06
2023-03-03T12:35:52.881Z,92.87
2023-03-03T12:38:23.960Z,92.62
2023-03-03T12:40:45.263Z,92.50
2023-03-03T12:43:11.711Z,92.54
2023-03-03T12:45:43.077Z,92.25
2023-03-03T12:48:25.272Z,91.95
2023-03-03T12:50:48.430Z,91.84
2023-03-03T12:53:11.749Z,91.46
2023-03-03T12:55:55.456Z,91.25
2023-03-03T12:58:24.740Z,91.24
2023-03-03T13:00:54.932Z,91.55
2023-03-03T13:03:32.144Z,91.87
2023-03-03T13:06:04.460Z,92.03
2023-03-03T13:08:49.482Z,91.78
2023-03-03T13:11:23.829Z,91.46
2023-03-03T13:13:54.898Z,91.51
2023-03-03T13:16:26.352Z,91.30
2023-03-03T13:18:55.618Z,91.34
2023-03-03T13:21:24.297Z,90.56
2023-03-03T13:24:15.467Z,89.91
2023-03-03T13:26:42.852Z,90.32
2023-03-03T13:29:09.509Z,90.02
2023-03-03T13:31:26.873Z,89.66
2023-03-03T13:33:49.009Z,89.32
2023-03-03T13:36:13.491Z,89.45
2023-03-03T13:38:30.894Z,89.30
2023-03-03T13:40:49.023Z,89.77
2023-03-03T13:43:12.729Z,89.46
2023-03-03T13:45:35.289Z,89.34
2023-03-03T13:47:59.781Z,89.54
2023-03-03T13:50:35.838Z,88.75
2023-03-03T13:52:57.200Z,88.81
2023-03-03T13:55:27.719Z,89.17
2023-03-03T13:57:49.406Z,89.17
2023-03-03T14:00:16.371Z,88.55
2023-03-03T14:02:49.688Z,88.79
2023-03-03T14:05:13.057Z,88.88
2023-03-03T14:07:41.952Z,88.53
2023-03-03T14:10:04.977Z,89.00
2023-03-03T14:12:38.790Z,89.29
2023-03-03T14:15:00.556Z,89.28
2023-03-03T14:17:25.453Z,88.63
2023-03-03T14:19:46.701Z,88.83
2023-03-03T14:22:23.678Z,89.02
2023-03-03T14:24:59.194Z,89.05
2023-03-03T14:27:25.387Z,88.85
2023-03-03T14:29:37.958Z,89.20
2023-03-03T14:31:50.527Z,89.28
2023-03-03T14:34:38.914Z,89.03
2023-03-03T14:36:57.455Z,88.71
2023-03-03T14:39:37.124Z,88.81
2023-03-03T14:41:52.401Z,88.49
2023-03-03T14:44:27.340Z,88.49
2023-03-03T14:46:41.839Z,88.09
2023-03-03T14:49:00.503Z,88.23
2023-03-03T14:51:25.620Z,87.95
2023-03-03T14:53:42.428Z,87.64
2023-03-03T14:55:56.113Z,87.70
2023-03-03T14:58:25.233Z,88.01
2023-03-03T15:00:38.090Z,88.01
2023-03-03T15:03:29.123Z,87.81
2023-03-03T15:05:50.438Z,87.97
2023-03-03T15:08:05.807Z,87.92
2023-03-03T15:10:37.093Z,87.77
2023-03-03T15:12:49.634Z,87.68
2023-03-03T15:15:05.670Z,87.84
2023-03-03T15:17:35.477Z,87.47
2023-03-03T15:20:22.184Z,87.38
2023-03-03T15:23:01.437Z,87.69
2023-03-03T15:25:24.128Z,87.38
2023-03-03T15:27:44.727Z,87.67
2023-03-03T15:30:24.861Z,87.95
2023-03-03T15:32:54.988Z,87.99
2023-03-03T15:35:37.726Z,87.94
2023-03-03T15:37:58.672Z,87.85
2023-03-03T15:40:14.257Z,88.17
2023-03-03T15:42:39.199Z,88.08
2023-03-03T15:44:54.446Z,88.37
2023-03-03T15:47:23.750Z,88.23
2023-03-03T15:49:56.588Z,88.32
2023-03-03T15:52:41.499Z,88.14
2023-03-03T15:55:15.739Z,88.20
2023-03-03T15:57:42.152Z,88.16
2023-03-03T16:00:31.556Z,88.43
2023-03-03T16:02:53.213Z,88.56
2023-03-03T16:05:39.297Z,88.47
2023-03-03T16:07:57.769Z,88.63
2023-03-03T16:10:34.846Z,88.84
2023-03-03T16:13:00.033Z,88.95
2023-03-03T16:15:28.605Z,88.70
2023-03-03T16:18:10.722Z,89.11
2023-03-03T16:20:57.704Z,89.42
2023-03-03T16:23:10.212Z,89.54
2023-03-03T16:25:34.245Z,89.49
2023-03-03T16:27:59.389Z,89.63
2023-03-03T16:30:30.907Z,89.75
2023-03-03T16:32:53.302Z,89.85
2023-03-03T16:35:23.285Z,89.84
2023-03-03T16:37:53.357Z,90.17
2023-03-03T16:40:21.800Z,90.35
2023-03-03T16:42:34.649Z,90.47
2023-03-03T16:45:15.204Z,90.47
2023-03-03T16:47:41.141Z,90.62
2023-03-03T16:50:09.655Z,90.97
2023-03-03T16:52:43.218Z,91.31
2023-03-03T16:55:02.825Z,91.06
2023-03-03T16:57:33.198Z,91.34
2023-03-03T17:00:05.082Z,91.80
2023-03-03T17:02:49.478Z,91.70
2023-03-03T17:05:21.692Z,91.54
2023-03-03T17:07:42.269Z,91.78
2023-03-03T17:10:32.458Z,91.88
2023-03-03T17:13:15.772Z,91.98
2023-03-03T17:15:46.828Z,92.18
2023-03-03T17:18:24.862Z,91.96
2023-03-03T17:20:49.181Z,92.19
2023-03-03T17:23:19.649Z,92.69
2023-03-03T17:25:42.142Z,92.65
2023-03-03T17:28:21.630Z,92.51
2023-03-03T17:31:08.470Z,92.46
2023-03-03T17:33:34.184Z,92.81
2023-03-03T17:36:04.461Z,93.01
2023-03-03T17:38:46.252Z,93.16
2023-03-03T17:41:08.732Z,93.12
2023-03-03T17:43:31.877Z,93.53
2023-03-03T17:45:46.950Z,93.45
2023-03-03T17:48:14.713Z,93.72
2023-03-03T17:51:17.970Z,93.69
2023-03-03T17:53:48.952Z,93.72
2023-03-03T17:56:19.592Z,94.05
2023-03-03T17:58:42.637Z,94.21
2023-03-03T18:01:20.110Z,94.35
2023-03-03T18:04:00.624Z,94.78
2023-03-03T18:06:43.699Z,95.06
2023-03-03T18:09:14.634Z,95.02
2023-03-03T18:11:58.782Z,94.74
2023-03-03T18:14:43.854Z,94.98
2023-03-03T18:17:16.028Z,95.53
2023-03-03T18:19:50.473Z,95.56
2023-03-03T18:22:12.334Z,95.46
2023-03-03T18:24:27.490Z,95.72
2023-03-03T18:26:42.214Z,95.92
2023-03-03T18:29:24.886Z,96.01
2023-03-03T18:31:52.708Z,95.74
2023-03-03T18:34:20.343Z,96.32
2023-03-03T18:36:33.024Z,96.02
2023-03-03T18:38:48.418Z,96.00
2023-03-03T18:41:09.059Z,96.22
2023-03-03T18:43:40.105Z,96.11
2023-03-03T18:45:56.988Z,96.38
2023-03-03T18:48:12.789Z,96.59
2023-03-03T18:50:34.696Z,96.47
2023-03-03T18:53:12.345Z,96.30
2023-03-03T18:55:26.706Z,96.51
2023-03-03T18:57:39.533Z,96.57
2023-03-03T19:00:14.864Z,96.69
2023-03-03T19:02:30.250Z,96.70
2023-03-03T19:04:47.041Z,96.81
2023-03-03T19:07:14.563Z,96.89
2023-03-03T19:09:50.502Z,96.75
2023-03-03T19:12:08.365Z,96.92
2023-03-03T19:14:28.928Z,97.06
2023-03-03T19:16:41.678Z,96.95
2023-03-03T19:19:00.823Z,97.13
2023-03-03T19:21:29.522Z,97.25
2023-03-03T19:24:00.763Z,97.37
2023-03-03T19:26:25.456Z,97.08
2023-03-03T19:28:47.732Z,97.31
2023-03-03T19:31:26.801Z,97.48
2023-03-03T19:33:55.138Z,97.41
2023-03-03T19:36:25.429Z,97.63
2023-03-03T19:38:58.501Z,97.71
2023-03-03T19:41:50.780Z,97.62
2023-03-03T19:44:44.044Z,97.65
2023-03-03T19:47:06.381Z,97.77
2023-03-03T19:49:44.395Z,97.90
2023-03-03T19:52:25.730Z,97.62
2023-03-03T19:54:53.177Z,97.89
2023-03-03T19:57:15.410Z,98.14
2023-03-03T19:59:44.909Z,98.28
2023-03-03T20:02:22.506Z,98.07
2023-03-03T20:05:12.814Z,98.39
2023-03-03T20:07:57.089Z,98.51
2023-03-03T20:10:15.794Z,98.58
2023-03-03T20:12:43.025Z,98.80
2023-03-03T20:15:15.984Z,98.97
2023-03-03T20:17:43.096Z,98.72
2023-03-03T20:20:23.609Z,98.88
2023-03-03T20:22:50.604Z,99.02
2023-03-03T20:25:42.514Z,99.25
2023-03-03T20:28:18.296Z,99.18
2023-03-03T20:30:51.266Z,99.22
2023-03-03T20:33:24.891Z,99.49
2023-03-03T20:36:11.581Z,99.35
2023-03-03T20:38:51.916Z,99.66
2023-03-03T20:41:27.674Z,99.72
2023-03-03T20:43:59.106Z,99.64
2023-03-03T20:46:17.553Z,99.78
2023-03-03T20:48:47.219Z,99.97
2023-03-03T20:51:07.630Z,99.97
2023-03-03T20:53:51.260Z,100.00
2023-03-03T20:56:12.902Z,100.00
2023-03-03T20:59:22.212Z,100.00
2023-03-03T21:02:04.473Z,100.00
2023-03-03T21:04:30.271Z,100.00
2023-03-03T21:06:42.906Z,100.00
2023-03-03T21:08:57.097Z,100.00
2023-03-03T21:11:10.479Z,100.00
2023-03-03T21:13:37.329Z,100.00
2023-03-03T21:16:01.750Z,100.00
2023-03-03T21:18:26.597Z,100.00
2023-03-03T21:20:39.430Z,100.00
2023-03-03T21:22:53.328Z,100.00
2023-03-03T21:25:06.436Z,100.00
2023-03-03T21:27:31.027Z,100.00
2023-03-03T21:29:43.553Z,100.00
2023-03-03T21:31:58.655Z,100.00
2023-03-03T21:34:24.856Z,100.00
2023-03-03T21:36:37.439Z,100.00
2023-03-03T21:38:52.920Z,100.00
2023-03-03T21:41:07.392Z,100.00
2023-03-03T21:43:50.213Z,100.00
2023-03-03T21:46:02.969Z,100.00
2023-03-03T21:48:16.374Z,100.00
2023-03-03T21:50:32.802Z,100.00
2023-03-03T21:52:45.665Z,100.00
2023-03-03T21:54:58.652Z,100.00
2023-03-03T21:57:12.523Z,100.00
2023-03-03T21:59:25.115Z,100.00
2023-03-03T22:01:38.473Z,100.00
2023-03-03T22:03:51.242Z,100.00
2023-03-03T22:06:04.034Z,100.00
2023-03-03T22:08:22.691Z,100.00
2023-03-03T22:10:35.426Z,100.00
2023-03-03T22:12:48.007Z,100.00
2023-03-03T22:15:00.852Z,100.00
2023-03-03T22:17:13.522Z,100.00
2023-03-03T22:19:26.188Z,100.00
2023-03-03T22:21:39.502Z,100.00
2023-03-03T22:23:52.138Z,100.00
2023-03-03T22:26:04.888Z,100.00
2023-03-03T22:28:17.499Z,100.00
2023-03-03T22:30:30.088Z,100.00
2023-03-03T22:32:42.641Z,100.00
2023-03-03T22:34:55.337Z,100.00
2023-03-03T22:37:07.952Z,100.00
2023-03-03T22:39:20.505Z,100.00
2023-03-03T22:41:33.265Z,100.00
2023-03-03T22:43:46.206Z,100.00
2023-03-03T22:45:59.047Z,100.00
2023-03-03T22:48:12.098Z,100.00
2023-03-03T22:50:25.433Z,100.00
2023-03-03T22:52:38.057Z,100.00
2023-03-03T22:54:50.801Z,100.00
2023-03-03T22:57:03.417Z,100.00
2023-03-03T22:59:16.123Z,100.00
2023-03-03T23:01:28.670Z,100.00
2023-03-03T23:03:41.336Z,100.00
2023-03-03T23:05:53.902Z,100.00
2023-03-03T23:08:08.887Z,100.00
2023-03-03T23:10:21.564Z,100.00
2023-03-03T23:12:34.096Z,100.00
2023-03-03T23:14:46.655Z,100.00
2023-03-03T23:16:59.179Z,100.00
2023-03-03T23:19:11.746Z,100.00
2023-03-03T23:21:24.393Z,100.00
2023-03-03T23:23:37.180Z,100.00
2023-03-03T23:25:49.761Z,100.00
2023-03-03T23:28:02.334Z,100.00
2023-03-03T23:30:16.666Z,100.00
2023-03-03T23:32:29.273Z,100.00
2023-03-03T23:34:41.946Z,100.00
2023-03-03T23:36:54.613Z,100.00
2023-03-03T23:39:07.220Z,100.00
2023-03-03T23:41:19.856Z,100.00
2023-03-03T23:43:33.557Z,100.00
2023-03-03T23:45:46.117Z,100.00
2023-03-03T23:47:58.703Z,100.00
2023-03-03T23:50:12.907Z,100.00
2023-03-03T23:52:25.556Z,100.00
2023-03-03T23:54:38.178Z,100.00
2023-03-03T23:56:50.954Z,100.00
2023-03-03T23:59:04.563Z,100.00
